createdAt,value
2023-01-22T00:00:16.400Z,11.10
2023-01-22T00:02:45.281Z,11.03
2023-01-22T00:05:13.950Z,14.67
2023-01-22T00:07:43.802Z,13.90
2023-01-22T00:10:13.268Z,13.53
2023-01-22T00:12:41.833Z,15.33
2023-01-22T00:15:10.628Z,13.03
2023-01-22T00:17:40.740Z,14.33
2023-01-22T00:20:10.806Z,13.67
2023-01-22T00:22:40.526Z,12.10
2023-01-22T00:25:11.390Z,10.57
2023-01-22T00:27:41.902Z,14.33
2023-01-22T00:30:14.477Z,13.30
2023-01-22T00:32:44.263Z,14.00
2023-01-22T00:35:12.632Z,15.93
2023-01-22T00:37:41.569Z,16.53
2023-01-22T00:40:11.525Z,11.43
2023-01-22T00:42:40.768Z,11.83
2023-01-22T00:45:10.757Z,16.93
2023-01-22T00:47:41.933Z,12.87
2023-01-22T00:50:13.921Z,18.33
2023-01-22T00:52:43.339Z,13.10
2023-01-22T00:55:12.012Z,11.07
2023-01-22T00:57:42.025Z,11.73
2023-01-22T01:00:12.352Z,12.43
2023-01-22T01:03:00.948Z,11.67
2023-01-22T01:05:31.123Z,11.60
2023-01-22T01:07:59.716Z,15.03
2023-01-22T01:10:28.749Z,15.13
2023-01-22T01:12:57.595Z,12.40
2023-01-22T01:15:26.458Z,12.67
2023-01-22T01:17:54.863Z,13.37
2023-01-22T01:20:25.090Z,12.27
2023-01-22T01:22:54.714Z,14.77
2023-01-22T01:25:24.903Z,14.47
2023-01-22T01:27:54.120Z,17.17
2023-01-22T01:30:22.655Z,17.00
2023-01-22T01:32:52.385Z,13.07
2023-01-22T01:35:22.754Z,16.00
2023-01-22T01:37:55.110Z,13.10
2023-01-22T01:40:24.282Z,16.70
2023-01-22T01:42:53.065Z,16.20
2023-01-22T01:45:32.563Z,15.60
2023-01-22T01:48:13.583Z,14.80
2023-01-22T01:50:43.945Z,16.90
2023-01-22T01:53:14.846Z,15.23
2023-01-22T01:55:43.649Z,16.53
2023-01-22T01:58:21.533Z,16.03
2023-01-22T02:00:55.917Z,14.63
2023-01-22T02:03:25.020Z,14.03
2023-01-22T02:05:53.998Z,20.10
2023-01-22T02:08:24.564Z,13.70
2023-01-22T02:10:53.413Z,20.60
2023-01-22T02:13:26.160Z,16.13
2023-01-22T02:15:55.175Z,16.50
2023-01-22T02:18:24.294Z,16.43
2023-01-22T02:21:00.424Z,19.77
2023-01-22T02:23:30.812Z,15.03
2023-01-22T02:26:04.272Z,16.53
2023-01-22T02:28:34.667Z,15.97
2023-01-22T02:31:06.292Z,14.77
2023-01-22T02:33:38.358Z,16.90
2023-01-22T02:36:10.276Z,17.60
2023-01-22T02:38:41.836Z,18.30
2023-01-22T02:41:11.084Z,16.73
2023-01-22T02:43:41.227Z,16.37
2023-01-22T02:46:09.583Z,18.70
2023-01-22T02:48:37.974Z,18.40
2023-01-22T02:51:08.973Z,20.40
2023-01-22T02:53:37.628Z,21.37
2023-01-22T02:56:07.847Z,16.43
2023-01-22T02:58:37.012Z,21.47
2023-01-22T03:01:20.470Z,18.77
2023-01-22T03:03:52.397Z,23.93
2023-01-22T03:06:25.249Z,18.77
2023-01-22T03:08:57.449Z,18.70
2023-01-22T03:11:27.975Z,18.40
2023-01-22T03:14:14.292Z,16.90
2023-01-22T03:17:01.697Z,17.70
2023-01-22T03:19:49.274Z,20.73
2023-01-22T03:22:23.341Z,18.90
2023-01-22T03:24:53.755Z,16.13
2023-01-22T03:27:27.057Z,19.73
2023-01-22T03:30:00.270Z,20.57
2023-01-22T03:32:33.059Z,19.13
2023-01-22T03:35:04.670Z,17.97
2023-01-22T03:37:52.029Z,17.90
2023-01-22T03:40:22.102Z,14.80
2023-01-22T03:42:50.854Z,16.80
2023-01-22T03:45:20.907Z,18.43
2023-01-22T03:47:51.299Z,18.27
2023-01-22T03:50:29.537Z,16.67
2023-01-22T03:52:59.659Z,18.90
2023-01-22T03:55:28.293Z,19.53
2023-01-22T03:57:57.130Z,14.90
2023-01-22T04:00:28.734Z,19.30
2023-01-22T04:02:56.968Z,17.97
2023-01-22T04:05:31.288Z,15.77
2023-01-22T04:08:03.207Z,19.10
2023-01-22T04:10:32.709Z,18.13
2023-01-22T04:13:03.574Z,23.40
2023-01-22T04:15:32.150Z,19.20
2023-01-22T04:18:03.322Z,16.07
2023-01-22T04:20:41.724Z,18.00
2023-01-22T04:23:22.886Z,15.23
2023-01-22T04:25:54.650Z,18.53
2023-01-22T04:28:23.452Z,18.10
2023-01-22T04:30:57.243Z,15.93
2023-01-22T04:33:42.130Z,18.33
2023-01-22T04:36:14.907Z,14.37
2023-01-22T04:38:45.437Z,17.37
2023-01-22T04:41:14.279Z,17.57
2023-01-22T04:43:43.315Z,16.77
2023-01-22T04:46:11.993Z,20.60
2023-01-22T04:48:40.669Z,21.70
2023-01-22T04:51:09.710Z,21.93
2023-01-22T04:53:38.376Z,24.47
2023-01-22T04:56:10.386Z,19.90
2023-01-22T04:58:40.143Z,21.03
2023-01-22T05:01:09.262Z,17.63
2023-01-22T05:03:38.557Z,19.07
2023-01-22T05:06:10.082Z,19.27
2023-01-22T05:08:40.593Z,19.93
2023-01-22T05:11:14.694Z,15.77
2023-01-22T05:13:52.889Z,15.40
2023-01-22T05:16:23.805Z,16.40
2023-01-22T05:18:52.767Z,16.03
2023-01-22T05:21:24.276Z,18.87
2023-01-22T05:23:54.343Z,13.67
2023-01-22T05:26:25.686Z,13.80
2023-01-22T05:29:02.217Z,13.80
2023-01-22T05:31:50.322Z,11.63
2023-01-22T05:34:44.830Z,15.87
2023-01-22T05:37:15.582Z,12.87
2023-01-22T05:39:44.400Z,13.33
2023-01-22T05:42:20.028Z,16.50
2023-01-22T05:44:51.488Z,11.23
2023-01-22T05:47:23.227Z,12.20
2023-01-22T05:50:04.446Z,14.53
2023-01-22T05:52:33.137Z,11.37
2023-01-22T05:55:02.108Z,13.43
2023-01-22T05:57:38.682Z,11.27
2023-01-22T06:00:08.724Z,12.50
2023-01-22T06:02:45.044Z,12.00
2023-01-22T06:05:16.185Z,12.10
2023-01-22T06:07:52.014Z,11.57
2023-01-22T06:10:21.531Z,13.90
2023-01-22T06:12:51.875Z,12.53
2023-01-22T06:15:20.744Z,12.33
2023-01-22T06:18:01.283Z,12.90
2023-01-22T06:20:29.643Z,13.07
2023-01-22T06:22:58.237Z,13.50
2023-01-22T06:25:28.382Z,12.00
2023-01-22T06:28:10.139Z,16.00
2023-01-22T06:30:40.643Z,11.63
2023-01-22T06:33:09.867Z,10.60
2023-01-22T06:35:40.508Z,14.10
2023-01-22T06:38:09.457Z,11.13
2023-01-22T06:40:38.633Z,12.60
2023-01-22T06:43:10.824Z,14.03
2023-01-22T06:45:40.084Z,13.13
2023-01-22T06:48:11.679Z,11.20
2023-01-22T06:50:40.745Z,11.43
2023-01-22T06:53:11.815Z,11.73
2023-01-22T06:55:40.018Z,15.70
2023-01-22T06:58:10.273Z,16.57
2023-01-22T07:00:38.732Z,11.40
2023-01-22T07:03:08.468Z,13.10
2023-01-22T07:05:37.638Z,13.57
2023-01-22T07:08:06.716Z,12.60
2023-01-22T07:10:35.312Z,11.70
2023-01-22T07:13:06.482Z,12.20
2023-01-22T07:15:39.143Z,12.43
2023-01-22T07:18:07.653Z,14.83
2023-01-22T07:20:36.555Z,14.60
2023-01-22T07:23:05.830Z,15.23
2023-01-22T07:25:34.325Z,15.90
2023-01-22T07:28:04.144Z,15.43
2023-01-22T07:30:36.459Z,13.03
2023-01-22T07:33:06.404Z,12.20
2023-01-22T07:35:35.204Z,16.73
2023-01-22T07:38:05.005Z,13.40
2023-01-22T07:40:33.382Z,11.37
2023-01-22T07:43:07.309Z,16.00
2023-01-22T07:45:38.027Z,14.60
2023-01-22T07:48:08.052Z,14.17
2023-01-22T07:50:37.053Z,15.07
2023-01-22T07:53:05.729Z,14.27
2023-01-22T07:55:34.112Z,16.50
2023-01-22T07:58:05.040Z,15.17
2023-01-22T08:00:34.782Z,14.17
2023-01-22T08:03:06.121Z,15.43
2023-01-22T08:05:34.700Z,12.77
2023-01-22T08:08:03.466Z,17.23
2023-01-22T08:10:32.663Z,16.50
2023-01-22T08:13:01.558Z,15.37
2023-01-22T08:15:30.112Z,16.27
2023-01-22T08:17:58.924Z,13.70
2023-01-22T08:20:28.905Z,15.33
2023-01-22T08:22:59.705Z,18.90
2023-01-22T08:25:29.062Z,16.03
2023-01-22T08:27:57.733Z,14.13
2023-01-22T08:30:26.004Z,16.30
2023-01-22T08:32:55.389Z,17.83
2023-01-22T08:35:24.642Z,26.37
2023-01-22T08:37:54.543Z,16.73
2023-01-22T08:40:23.381Z,20.20
2023-01-22T08:42:52.755Z,16.77
2023-01-22T08:45:21.615Z,18.03
2023-01-22T08:47:51.523Z,20.47
2023-01-22T08:50:20.231Z,16.60
2023-01-22T08:52:49.649Z,20.43
2023-01-22T08:55:19.697Z,21.77
2023-01-22T08:57:55.602Z,19.13
2023-01-22T09:00:27.743Z,19.57
2023-01-22T09:02:59.705Z,15.90
2023-01-22T09:05:28.832Z,15.70
2023-01-22T09:07:57.257Z,16.40
2023-01-22T09:10:29.036Z,19.07
2023-01-22T09:13:01.049Z,13.77
2023-01-22T09:15:29.834Z,16.37
2023-01-22T09:18:03.355Z,21.87
2023-01-22T09:20:32.029Z,16.17
2023-01-22T09:23:00.445Z,14.63
2023-01-22T09:25:30.590Z,17.80
2023-01-22T09:28:01.077Z,14.47
2023-01-22T09:30:32.622Z,17.03
2023-01-22T09:33:01.766Z,18.97
2023-01-22T09:35:30.686Z,15.67
2023-01-22T09:37:59.453Z,17.53
2023-01-22T09:40:33.857Z,15.30
2023-01-22T09:43:06.566Z,13.40
2023-01-22T09:45:39.359Z,15.27
2023-01-22T09:48:13.682Z,13.77
2023-01-22T09:50:43.421Z,16.20
2023-01-22T09:53:17.404Z,13.77
2023-01-22T09:55:49.528Z,14.47
2023-01-22T09:58:20.345Z,15.40
2023-01-22T10:00:53.257Z,16.27
2023-01-22T10:03:27.791Z,13.20
2023-01-22T10:05:59.795Z,15.70
2023-01-22T10:08:34.865Z,14.40
2023-01-22T10:11:06.146Z,13.47
2023-01-22T10:13:37.464Z,12.60
2023-01-22T10:16:07.994Z,13.83
2023-01-22T10:18:42.202Z,17.67
2023-01-22T10:21:21.758Z,16.23
2023-01-22T10:23:50.835Z,15.67
2023-01-22T10:26:25.221Z,15.43
2023-01-22T10:28:58.239Z,15.03
2023-01-22T10:31:29.786Z,14.13
2023-01-22T10:34:03.979Z,14.80
2023-01-22T10:36:33.657Z,14.87
2023-01-22T10:39:13.517Z,13.73
2023-01-22T10:41:45.554Z,14.50
2023-01-22T10:44:25.860Z,14.00
2023-01-22T10:46:56.315Z,13.37
2023-01-22T10:49:29.065Z,12.33
2023-01-22T10:52:02.804Z,15.27
2023-01-22T10:54:33.630Z,15.33
2023-01-22T10:57:16.520Z,12.20
2023-01-22T10:59:52.891Z,13.13
2023-01-22T11:02:28.380Z,13.50
2023-01-22T11:04:57.643Z,15.60
2023-01-22T11:07:32.684Z,12.87
2023-01-22T11:10:11.343Z,12.60
2023-01-22T11:12:46.254Z,12.47
2023-01-22T11:15:21.777Z,11.13
2023-01-22T11:17:53.874Z,11.70
2023-01-22T11:20:27.108Z,14.03
2023-01-22T11:23:15.447Z,13.73
2023-01-22T11:25:53.933Z,13.60
2023-01-22T11:28:36.643Z,15.47
2023-01-22T11:31:19.325Z,13.37
2023-01-22T11:34:19.314Z,13.63
2023-01-22T11:36:54.699Z,12.80
2023-01-22T11:39:34.749Z,13.87
2023-01-22T11:42:19.374Z,11.43
2023-01-22T11:45:04.123Z,13.10
2023-01-22T11:47:58.514Z,15.27
2023-01-22T11:50:32.149Z,14.63
2023-01-22T11:53:18.348Z,14.30
2023-01-22T11:56:06.749Z,28.13
2023-01-22T11:58:43.479Z,13.13
2023-01-22T12:01:22.074Z,14.20
2023-01-22T12:04:14.557Z,18.77
2023-01-22T12:07:11.829Z,13.03
2023-01-22T12:09:49.878Z,12.67
2023-01-22T12:12:31.730Z,12.70
2023-01-22T12:15:13.111Z,14.60
2023-01-22T12:17:58.500Z,10.00
2023-01-22T12:20:39.863Z,10.70
2023-01-22T12:23:13.077Z,11.73
2023-01-22T12:25:51.388Z,10.70
2023-01-22T12:28:28.657Z,10.70
2023-01-22T12:31:02.440Z,10.63
2023-01-22T12:33:38.337Z,11.93
2023-01-22T12:36:13.338Z,8.83
2023-01-22T12:38:48.490Z,10.40
2023-01-22T12:41:27.401Z,12.37
2023-01-22T12:43:59.595Z,9.33
2023-01-22T12:46:36.772Z,12.33
2023-01-22T12:49:10.447Z,11.00
2023-01-22T12:51:43.313Z,11.00
2023-01-22T12:54:23.740Z,10.40
2023-01-22T12:56:57.838Z,11.37
2023-01-22T12:59:44.748Z,10.30
2023-01-22T13:02:35.971Z,9.77
2023-01-22T13:05:19.195Z,11.50
2023-01-22T13:07:48.697Z,11.60
2023-01-22T13:10:29.438Z,11.30
2023-01-22T13:13:01.272Z,9.90
2023-01-22T13:15:35.782Z,11.23
2023-01-22T13:18:08.970Z,10.53
2023-01-22T13:20:55.856Z,11.00
2023-01-22T13:23:24.963Z,10.60
2023-01-22T13:26:18.542Z,10.27
2023-01-22T13:28:53.427Z,10.97
2023-01-22T13:31:23.090Z,9.40
2023-01-22T13:34:00.860Z,11.70
2023-01-22T13:36:33.548Z,9.73
2023-01-22T13:39:02.236Z,8.60
2023-01-22T13:41:36.671Z,8.67
2023-01-22T13:44:06.511Z,15.97
2023-01-22T13:46:38.575Z,11.10
2023-01-22T13:49:11.240Z,8.57
2023-01-22T13:51:46.970Z,8.90
2023-01-22T13:54:25.748Z,8.60
2023-01-22T13:56:54.517Z,9.73
2023-01-22T13:59:35.011Z,8.37
2023-01-22T14:02:21.851Z,7.83
2023-01-22T14:04:51.086Z,10.80
2023-01-22T14:07:28.942Z,13.33
2023-01-22T14:10:00.139Z,9.70
2023-01-22T14:12:30.492Z,10.73
2023-01-22T14:15:01.628Z,10.63
2023-01-22T14:17:34.433Z,9.43
2023-01-22T14:20:04.325Z,13.33
2023-01-22T14:22:35.855Z,9.77
2023-01-22T14:25:04.275Z,16.37
2023-01-22T14:27:42.005Z,13.23
2023-01-22T14:30:14.487Z,14.43
2023-01-22T14:32:43.668Z,12.33
2023-01-22T14:35:18.515Z,12.63
2023-01-22T14:37:52.432Z,10.27
2023-01-22T14:40:22.836Z,10.63
2023-01-22T14:42:52.335Z,10.07
2023-01-22T14:45:22.032Z,12.50
2023-01-22T14:48:01.660Z,9.70
2023-01-22T14:50:32.009Z,9.90
2023-01-22T14:53:02.695Z,10.37
2023-01-22T14:55:33.899Z,12.43
2023-01-22T14:58:06.054Z,10.57
2023-01-22T15:00:34.930Z,11.00
2023-01-22T15:03:06.677Z,21.07
2023-01-22T15:05:35.908Z,13.90
2023-01-22T15:08:06.712Z,13.30
2023-01-22T15:10:35.294Z,9.43
2023-01-22T15:13:03.858Z,10.90
2023-01-22T15:15:35.980Z,11.07
2023-01-22T15:18:04.613Z,12.73
2023-01-22T15:20:33.210Z,12.20
2023-01-22T15:23:01.559Z,11.50
2023-01-22T15:25:33.005Z,14.97
2023-01-22T15:28:03.052Z,12.90
2023-01-22T15:30:32.241Z,9.33
2023-01-22T15:33:00.566Z,10.70
2023-01-22T15:35:30.522Z,11.03
2023-01-22T15:38:00.106Z,11.80
2023-01-22T15:40:29.125Z,9.70
2023-01-22T15:42:59.291Z,14.23
2023-01-22T15:45:30.373Z,14.93
2023-01-22T15:47:59.383Z,11.40
2023-01-22T15:50:28.102Z,14.23
2023-01-22T15:52:57.593Z,11.83
2023-01-22T15:55:27.948Z,11.10
2023-01-22T15:57:56.971Z,10.27
2023-01-22T16:00:31.181Z,14.00
2023-01-22T16:03:00.497Z,11.57
2023-01-22T16:05:29.300Z,10.80
2023-01-22T16:07:57.676Z,10.77
2023-01-22T16:10:26.302Z,11.90
2023-01-22T16:12:54.863Z,10.57
2023-01-22T16:15:23.126Z,11.53
2023-01-22T16:17:53.764Z,13.30
2023-01-22T16:20:22.816Z,11.90
2023-01-22T16:22:53.865Z,11.20
2023-01-22T16:25:23.222Z,14.13
2023-01-22T16:27:52.279Z,12.00
2023-01-22T16:30:21.235Z,12.97
2023-01-22T16:32:52.529Z,11.20
2023-01-22T16:35:22.416Z,9.60
2023-01-22T16:37:51.930Z,12.63
2023-01-22T16:40:25.120Z,12.07
2023-01-22T16:42:59.809Z,12.50
2023-01-22T16:45:30.379Z,13.17
2023-01-22T16:47:59.630Z,12.17
2023-01-22T16:50:29.845Z,11.07
2023-01-22T16:52:58.538Z,9.83
2023-01-22T16:55:27.122Z,10.47
2023-01-22T16:57:55.954Z,11.33
2023-01-22T17:00:24.367Z,9.37
2023-01-22T17:02:55.815Z,11.57
2023-01-22T17:05:24.227Z,8.87
2023-01-22T17:07:56.148Z,11.47
2023-01-22T17:10:26.070Z,10.13
2023-01-22T17:12:56.100Z,9.03
2023-01-22T17:15:26.943Z,11.47
2023-01-22T17:17:55.815Z,13.40
2023-01-22T17:20:24.257Z,10.70
2023-01-22T17:22:55.117Z,10.23
2023-01-22T17:25:23.510Z,8.60
2023-01-22T17:27:52.455Z,9.67
2023-01-22T17:30:21.987Z,9.87
2023-01-22T17:32:50.939Z,9.50
2023-01-22T17:35:20.445Z,8.20
2023-01-22T17:37:49.061Z,11.00
2023-01-22T17:40:19.779Z,13.10
2023-01-22T17:42:48.579Z,10.83
2023-01-22T17:45:17.675Z,9.73
2023-01-22T17:47:46.858Z,11.97
2023-01-22T17:50:15.761Z,11.03
2023-01-22T17:52:44.660Z,10.93
2023-01-22T17:55:13.139Z,7.60
2023-01-22T17:57:44.375Z,9.80
2023-01-22T18:00:17.150Z,16.87
2023-01-22T18:02:45.628Z,9.30
2023-01-22T18:05:15.837Z,9.37
2023-01-22T18:07:44.443Z,9.30
2023-01-22T18:10:14.471Z,9.00
2023-01-22T18:12:45.899Z,7.50
2023-01-22T18:15:17.567Z,8.83
2023-01-22T18:17:49.462Z,9.80
2023-01-22T18:20:18.318Z,9.47
2023-01-22T18:22:46.708Z,9.90
2023-01-22T18:25:14.913Z,8.17
2023-01-22T18:27:45.543Z,10.13
2023-01-22T18:30:15.553Z,9.00
2023-01-22T18:32:44.189Z,11.70
2023-01-22T18:35:12.996Z,11.30
2023-01-22T18:37:42.480Z,10.07
2023-01-22T18:40:12.501Z,9.57
2023-01-22T18:42:40.950Z,11.23
2023-01-22T18:45:15.494Z,9.97
2023-01-22T18:47:43.988Z,10.53
2023-01-22T18:50:16.776Z,11.17
2023-01-22T18:52:45.670Z,12.40
2023-01-22T18:55:16.013Z,9.43
2023-01-22T18:57:57.280Z,11.17
2023-01-22T19:00:46.928Z,13.40
2023-01-22T19:03:15.615Z,9.60
2023-01-22T19:05:45.321Z,11.43
2023-01-22T19:08:14.667Z,12.63
2023-01-22T19:10:43.102Z,11.83
2023-01-22T19:13:14.032Z,14.07
2023-01-22T19:15:43.989Z,11.63
2023-01-22T19:18:13.372Z,12.17
2023-01-22T19:20:43.970Z,10.90
2023-01-22T19:23:12.236Z,11.97
2023-01-22T19:25:40.845Z,11.30
2023-01-22T19:28:09.682Z,11.20
2023-01-22T19:30:39.859Z,11.40
2023-01-22T19:33:09.843Z,12.17
2023-01-22T19:35:45.959Z,10.97
2023-01-22T19:38:15.252Z,11.30
2023-01-22T19:40:46.146Z,10.27
2023-01-22T19:43:16.691Z,11.90
2023-01-22T19:45:45.279Z,10.20
2023-01-22T19:48:15.244Z,12.00
2023-01-22T19:50:43.798Z,9.80
2023-01-22T19:53:13.301Z,10.60
2023-01-22T19:55:41.593Z,9.20
2023-01-22T19:58:09.847Z,10.97
2023-01-22T20:00:38.525Z,8.60
2023-01-22T20:03:09.699Z,14.37
2023-01-22T20:05:42.694Z,13.80
2023-01-22T20:08:12.200Z,13.17
2023-01-22T20:10:40.980Z,14.07
2023-01-22T20:13:13.004Z,14.37
2023-01-22T20:15:42.826Z,11.90
2023-01-22T20:18:11.623Z,11.70
2023-01-22T20:20:41.536Z,12.17
2023-01-22T20:23:11.815Z,13.77
2023-01-22T20:25:40.106Z,13.03
2023-01-22T20:28:10.868Z,12.20
2023-01-22T20:30:39.627Z,11.80
2023-01-22T20:33:12.164Z,11.87
2023-01-22T20:35:44.261Z,11.83
2023-01-22T20:38:15.087Z,12.93
2023-01-22T20:40:46.097Z,16.43
2023-01-22T20:43:17.966Z,12.57
2023-01-22T20:45:46.708Z,13.93
2023-01-22T20:48:15.372Z,13.93
2023-01-22T20:50:46.138Z,13.17
2023-01-22T20:53:14.559Z,15.00
2023-01-22T20:55:42.907Z,14.50
2023-01-22T20:58:11.775Z,17.10
2023-01-22T21:00:40.783Z,13.17
2023-01-22T21:03:10.433Z,13.57
2023-01-22T21:05:41.639Z,14.83
2023-01-22T21:08:14.998Z,17.53
2023-01-22T21:10:43.496Z,17.63
2023-01-22T21:13:12.787Z,14.47
2023-01-22T21:15:41.231Z,14.40
2023-01-22T21:18:09.772Z,17.67
2023-01-22T21:20:40.037Z,15.40
2023-01-22T21:23:08.697Z,16.67
2023-01-22T21:25:38.996Z,14.53
2023-01-22T21:28:11.211Z,14.77
2023-01-22T21:30:40.532Z,17.30
2023-01-22T21:33:09.107Z,18.10
2023-01-22T21:35:37.909Z,13.90
2023-01-22T21:38:06.614Z,18.77
2023-01-22T21:40:35.283Z,15.63
2023-01-22T21:43:22.641Z,16.73
2023-01-22T21:46:08.140Z,14.97
2023-01-22T21:48:37.232Z,16.63
2023-01-22T21:51:06.100Z,16.13
2023-01-22T21:53:34.385Z,16.97
2023-01-22T21:56:02.819Z,17.00
2023-01-22T21:58:32.769Z,16.00
2023-01-22T22:01:06.345Z,14.73
2023-01-22T22:03:37.630Z,19.50
2023-01-22T22:06:06.540Z,17.70
2023-01-22T22:08:37.112Z,17.07
2023-01-22T22:11:06.123Z,19.40
2023-01-22T22:13:39.446Z,16.93
2023-01-22T22:16:09.983Z,18.43
2023-01-22T22:18:40.146Z,14.80
2023-01-22T22:21:10.235Z,17.50
2023-01-22T22:23:39.071Z,17.90
2023-01-22T22:26:08.961Z,18.63
2023-01-22T22:28:38.953Z,18.77
2023-01-22T22:31:14.236Z,16.97
2023-01-22T22:33:45.553Z,17.37
2023-01-22T22:36:15.415Z,21.23
2023-01-22T22:38:45.036Z,17.93
2023-01-22T22:41:15.184Z,16.20
2023-01-22T22:43:46.912Z,18.20
2023-01-22T22:46:18.944Z,20.63
2023-01-22T22:48:51.063Z,18.50
2023-01-22T22:51:21.764Z,18.00
2023-01-22T22:53:53.879Z,15.40
2023-01-22T22:56:25.214Z,21.17
2023-01-22T22:58:55.180Z,17.37
2023-01-22T23:01:26.516Z,18.53
2023-01-22T23:03:56.232Z,16.63
2023-01-22T23:06:27.152Z,15.97
2023-01-22T23:09:12.001Z,13.20
2023-01-22T23:11:40.698Z,14.97
2023-01-22T23:14:11.558Z,20.43
2023-01-22T23:16:44.130Z,17.17
2023-01-22T23:19:15.685Z,15.10
2023-01-22T23:21:44.984Z,17.43
2023-01-22T23:24:15.298Z,14.03
2023-01-22T23:26:44.894Z,15.17
2023-01-22T23:29:17.340Z,17.70
2023-01-22T23:31:46.011Z,14.37
2023-01-22T23:34:16.620Z,16.83
2023-01-22T23:36:46.376Z,16.07
2023-01-22T23:39:17.712Z,15.17
2023-01-22T23:41:46.704Z,15.07
2023-01-22T23:44:18.902Z,13.00
2023-01-22T23:46:50.839Z,14.70
2023-01-22T23:49:21.546Z,14.30
2023-01-22T23:51:50.547Z,15.50
2023-01-22T23:54:19.253Z,13.40
2023-01-22T23:56:47.924Z,16.87
2023-01-22T23:59:18.265Z,14.67
